KDAN/DAN METAR and TAF weather

Enter ICAO airport designator
Station Type Date Time Source
KDAN METAR 2018/01/23 01:23 UTC NOAA

KDAN 230123Z AUTO VRB04KT 10SM BKN023 BKN065 13/06 A3002 RMK AO2 T01280061


Station Type Date Time Source
KDAN Decoded METAR 2018/01/23 01:23 UTC NOAA

DANVILLE REGIONAL AIRPORT, VA, United States (KDAN) 36-34N 079-20W 175M
Jan 22, 2018 - 08:23 PM EST / 2018.01.23 0123 UTC
Wind: Variable at 5 MPH (4 KT):0
Visibility: 10 mile(s):0
Sky conditions: mostly cloudy
Temperature: 55.0 F (12.8 C)
Dew Point: 43.0 F (6.1 C)
Relative Humidity: 63%
Pressure (altimeter): 30.02 in. Hg (1016 hPa)
ob: KDAN 230123Z AUTO VRB04KT 10SM BKN023 BKN065 13/06 A3002 RMK AO2 T01280061
cycle: 1

Station Type Date Time Source
KDAN TAF 2018/01/22 18:27 UTC NOAA

TAF KDAN 221723Z 2218/2318 23007KT P6SM SCT025 BKN200
FM230300 17007KT P6SM OVC025
FM230600 18009KT P6SM OVC010 WS020/20040KT
FM230900 18010G18KT 4SM -SHRA BR OVC003
FM231400 23012G20KT P6SM BKN020


Example: see airport list